createdAt,value
2022-08-29T00:00:25.233Z,15.2
2022-08-29T00:01:20.325Z,15.2
2022-08-29T00:02:22.538Z,15.2
2022-08-29T00:03:24.745Z,15.2
2022-08-29T00:04:20.716Z,15.2
2022-08-29T00:05:27.241Z,15.1
2022-08-29T00:06:22.258Z,15.1
2022-08-29T00:07:20.172Z,15.1
2022-08-29T00:08:20.268Z,15.1
2022-08-29T00:09:29.319Z,15.2
2022-08-29T00:10:12.219Z,15.2
2022-08-29T00:11:23.916Z,15.2
2022-08-29T00:12:18.628Z,15.3
2022-08-29T00:13:18.014Z,15.3
2022-08-29T00:14:27.719Z,15.1
2022-08-29T00:15:21.645Z,15.1
2022-08-29T00:16:18.593Z,15.1
2022-08-29T00:17:20.093Z,15.1
2022-08-29T00:18:19.056Z,15.1
2022-08-29T00:19:18.887Z,15
2022-08-29T00:20:38.506Z,15
2022-08-29T00:21:24.177Z,15
2022-08-29T00:22:16.738Z,14.9
2022-08-29T00:23:17.448Z,14.9
2022-08-29T00:24:21.303Z,14.9
2022-08-29T00:25:16.645Z,15
2022-08-29T00:26:22.089Z,15.1
2022-08-29T00:27:18.555Z,15.1
2022-08-29T00:28:20.615Z,15
2022-08-29T00:29:18.596Z,14.9
2022-08-29T00:30:21.783Z,14.9
2022-08-29T00:31:18.863Z,14.9
2022-08-29T00:32:23.623Z,15
2022-08-29T00:33:18.938Z,14.9
2022-08-29T00:34:18.056Z,14.9
2022-08-29T00:35:24.116Z,14.9
2022-08-29T00:36:17.879Z,14.9
2022-08-29T00:37:26.101Z,14.9
2022-08-29T00:38:21.415Z,14.9
2022-08-29T00:39:37.106Z,14.9
2022-08-29T00:40:07.819Z,14.9
2022-08-29T00:41:22.236Z,14.9
2022-08-29T00:42:19.585Z,14.9
2022-08-29T00:43:20.057Z,14.9
2022-08-29T00:44:22.675Z,14.9
2022-08-29T00:45:27.718Z,14.9
2022-08-29T00:46:20.831Z,14.9
2022-08-29T00:47:23.993Z,15
2022-08-29T00:48:20.881Z,15
2022-08-29T00:49:23.919Z,15
2022-08-29T00:50:22.170Z,15
2022-08-29T00:51:17.005Z,15
2022-08-29T00:52:26.859Z,14.9
2022-08-29T00:53:22.045Z,14.8
2022-08-29T00:54:18.698Z,14.8
2022-08-29T00:55:19.931Z,14.8
2022-08-29T00:56:17.688Z,14.8
2022-08-29T00:57:17.746Z,14.8
2022-08-29T00:58:20.815Z,14.8
2022-08-29T00:59:21.679Z,14.8
2022-08-29T01:00:18.761Z,14.8
2022-08-29T01:01:22.812Z,14.8
2022-08-29T01:02:21.447Z,14.9
2022-08-29T01:03:17.505Z,14.8
2022-08-29T01:04:28.526Z,14.9
2022-08-29T01:05:20.083Z,14.9
2022-08-29T01:06:26.089Z,14.9
2022-08-29T01:07:17.057Z,14.9
2022-08-29T01:08:22.268Z,14.9
2022-08-29T01:09:24.874Z,14.9
2022-08-29T01:10:17.743Z,15.1
2022-08-29T01:11:20.564Z,15.1
2022-08-29T01:12:19.351Z,15.1
2022-08-29T01:13:24.655Z,15.2
2022-08-29T01:14:38.899Z,15.3
2022-08-29T01:15:08.464Z,15.3
2022-08-29T01:16:20.565Z,15.3
2022-08-29T01:17:19.374Z,15.3
2022-08-29T01:18:20.560Z,15.3
2022-08-29T01:19:18.375Z,15.4
2022-08-29T01:20:24.431Z,15.4
2022-08-29T01:21:22.247Z,15.4
2022-08-29T01:22:17.776Z,15.4
2022-08-29T01:23:22.085Z,15.4
2022-08-29T01:24:30.214Z,15.4
2022-08-29T01:25:18.692Z,15.4
2022-08-29T01:26:21.857Z,15.4
2022-08-29T01:27:25.637Z,15.4
2022-08-29T01:28:19.854Z,15.4
2022-08-29T01:29:21.895Z,15.4
2022-08-29T01:30:18.885Z,15.4
2022-08-29T01:32:00.919Z,15.4
2022-08-29T01:32:29.385Z,15.4
2022-08-29T01:33:17.507Z,15.4
2022-08-29T01:34:17.157Z,15.4
2022-08-29T01:35:22.607Z,15.5
2022-08-29T01:36:21.085Z,15.5
2022-08-29T01:37:20.688Z,15.4
2022-08-29T01:38:21.187Z,15.4
2022-08-29T01:39:33.115Z,15.4
2022-08-29T01:40:07.581Z,15.4
2022-08-29T01:41:25.509Z,15.4
2022-08-29T01:42:21.845Z,15.4
2022-08-29T01:43:18.761Z,15.4
2022-08-29T01:44:19.778Z,15.4
2022-08-29T01:45:24.883Z,15.4
2022-08-29T01:46:17.579Z,15.5
2022-08-29T01:47:22.596Z,15.5
2022-08-29T01:48:20.859Z,15.5
2022-08-29T01:49:16.796Z,15.6
2022-08-29T01:50:25.326Z,15.6
2022-08-29T01:51:18.984Z,15.6
2022-08-29T01:52:22.519Z,15.6
2022-08-29T01:53:21.061Z,15.6
2022-08-29T01:54:27.845Z,15.6
2022-08-29T01:55:18.851Z,15.6
2022-08-29T01:56:16.771Z,15.6
2022-08-29T01:57:23.566Z,15.6
2022-08-29T01:58:18.232Z,15.6
2022-08-29T01:59:28.670Z,15.4
2022-08-29T02:00:22.619Z,15.4
2022-08-29T02:01:25.713Z,15.5
2022-08-29T02:02:22.173Z,15.5
2022-08-29T02:03:29.582Z,15.6
2022-08-29T02:04:16.718Z,15.6
2022-08-29T02:05:24.561Z,15.6
2022-08-29T02:06:17.994Z,15.6
2022-08-29T02:07:18.387Z,15.6
2022-08-29T02:08:25.360Z,15.6
2022-08-29T02:09:28.987Z,15.6
2022-08-29T02:10:11.436Z,15.6
2022-08-29T02:11:26.560Z,15.6
2022-08-29T02:12:23.828Z,15.7
2022-08-29T02:13:20.007Z,15.8
2022-08-29T02:14:24.040Z,15.8
2022-08-29T02:15:20.562Z,15.7
2022-08-29T02:16:21.610Z,15.8
2022-08-29T02:17:21.867Z,15.8
2022-08-29T02:18:21.657Z,15.8
2022-08-29T02:19:23.427Z,15.8
2022-08-29T02:20:19.568Z,15.6
2022-08-29T02:21:22.485Z,15.6
2022-08-29T02:22:24.864Z,15.7
2022-08-29T02:23:34.288Z,15.7
2022-08-29T02:24:32.533Z,15.7
2022-08-29T02:25:25.172Z,15.8
2022-08-29T02:26:18.639Z,15.8
2022-08-29T02:27:25.939Z,15.8
2022-08-29T02:28:16.105Z,15.8
2022-08-29T02:29:24.778Z,15.8
2022-08-29T02:30:20.565Z,15.8
2022-08-29T02:31:19.265Z,15.8
2022-08-29T02:32:27.997Z,15.8
2022-08-29T02:33:33.858Z,15.8
2022-08-29T02:34:21.106Z,15.8
2022-08-29T02:35:19.771Z,15.8
2022-08-29T02:36:24.158Z,15.8
2022-08-29T02:37:17.554Z,15.9
2022-08-29T02:38:18.367Z,15.9
2022-08-29T02:39:22.467Z,15.9
2022-08-29T02:40:07.358Z,15.9
2022-08-29T02:41:18.834Z,15.9
2022-08-29T02:42:18.520Z,15.8
2022-08-29T02:43:17.374Z,15.8
2022-08-29T02:44:24.291Z,15.8
2022-08-29T02:45:22.379Z,15.9
2022-08-29T02:46:21.408Z,15.9
2022-08-29T02:47:22.093Z,15.9
2022-08-29T02:48:21.612Z,15.9
2022-08-29T02:49:18.821Z,15.8
2022-08-29T02:50:23.907Z,15.9
2022-08-29T02:51:15.673Z,15.9
2022-08-29T02:52:23.729Z,15.9
2022-08-29T02:53:19.371Z,15.9
2022-08-29T02:54:24.542Z,15.9
2022-08-29T02:55:18.940Z,15.9
2022-08-29T02:56:24.572Z,15.9
2022-08-29T02:57:17.853Z,15.9
2022-08-29T02:58:24.517Z,15.9
2022-08-29T02:59:17.129Z,15.9
2022-08-29T03:00:28.714Z,15.8
2022-08-29T03:01:17.695Z,15.8
2022-08-29T03:02:28.529Z,15.8
2022-08-29T03:03:17.399Z,15.9
2022-08-29T03:04:20.891Z,15.9
2022-08-29T03:05:20.588Z,15.9
2022-08-29T03:06:18.691Z,16
2022-08-29T03:07:17.602Z,16
2022-08-29T03:08:21.371Z,16
2022-08-29T03:09:22.966Z,16
2022-08-29T03:10:17.934Z,16
2022-08-29T03:11:13.951Z,16
2022-08-29T03:12:24.285Z,16
2022-08-29T03:13:16.530Z,16
2022-08-29T03:14:17.986Z,16.1
2022-08-29T03:15:29.900Z,16.1
2022-08-29T03:16:26.269Z,16
2022-08-29T03:17:17.146Z,16
2022-08-29T03:18:24.136Z,16
2022-08-29T03:19:16.585Z,16.1
2022-08-29T03:20:24.759Z,16.1
2022-08-29T03:21:19.915Z,16
2022-08-29T03:22:18.698Z,16
2022-08-29T03:23:20.233Z,16.1
2022-08-29T03:24:30.568Z,16.1
2022-08-29T03:25:24.063Z,16.1
2022-08-29T03:26:20.747Z,16.1
2022-08-29T03:27:17.116Z,16.1
2022-08-29T03:28:23.008Z,16.1
2022-08-29T03:29:19.177Z,16.2
2022-08-29T03:30:25.967Z,16.1
2022-08-29T03:31:21.250Z,16.1
2022-08-29T03:32:21.456Z,16.1
2022-08-29T03:33:18.883Z,16.1
2022-08-29T03:34:22.478Z,16.2
2022-08-29T03:35:19.197Z,16.2
2022-08-29T03:36:29.187Z,16.3
2022-08-29T03:37:19.487Z,16.3
2022-08-29T03:38:15.559Z,16.3
2022-08-29T03:39:28.405Z,16.3
2022-08-29T03:40:07.918Z,16.3
2022-08-29T03:41:20.770Z,16.3
2022-08-29T03:42:21.006Z,16.3
2022-08-29T03:43:20.605Z,16.3
2022-08-29T03:44:27.013Z,16.3
2022-08-29T03:45:24.086Z,16.3
2022-08-29T03:46:23.363Z,16.3
2022-08-29T03:47:21.188Z,16.3
2022-08-29T03:48:25.696Z,16.3
2022-08-29T03:49:19.044Z,16.3
2022-08-29T03:50:20.290Z,16.3
2022-08-29T03:51:23.705Z,16.3
2022-08-29T03:52:21.747Z,16.3
2022-08-29T03:53:24.855Z,16.4
2022-08-29T03:54:16.738Z,16.4
2022-08-29T03:55:18.100Z,16.4
2022-08-29T03:56:23.436Z,16.4
2022-08-29T03:57:14.740Z,16.4
2022-08-29T03:58:21.987Z,16.4
2022-08-29T03:59:18.542Z,16.3
2022-08-29T04:00:20.384Z,16.3
2022-08-29T04:01:19.081Z,16.4
2022-08-29T04:02:25.563Z,16.4
2022-08-29T04:03:19.032Z,16.3
2022-08-29T04:04:19.616Z,16.3
2022-08-29T04:05:29.584Z,16.3
2022-08-29T04:06:24.530Z,16.3
2022-08-29T04:07:22.582Z,16.2
2022-08-29T04:08:22.047Z,16.2
2022-08-29T04:09:25.701Z,16.3
2022-08-29T04:10:09.722Z,16.3
2022-08-29T04:11:20.342Z,16.3
2022-08-29T04:12:19.322Z,16.3
2022-08-29T04:13:15.901Z,16.3
2022-08-29T04:14:20.700Z,16.3
2022-08-29T04:15:18.450Z,16.3
2022-08-29T04:16:23.950Z,16.3
2022-08-29T04:17:18.551Z,16.3
2022-08-29T04:18:26.544Z,16.4
2022-08-29T04:19:20.261Z,16.4
2022-08-29T04:20:29.581Z,16.4
2022-08-29T04:21:18.960Z,16.4
2022-08-29T04:22:19.118Z,16.4
2022-08-29T04:23:23.460Z,16.4
2022-08-29T04:24:23.522Z,16.4
2022-08-29T04:25:28.464Z,16.4
2022-08-29T04:26:39.959Z,16.4
2022-08-29T04:27:22.137Z,16.4
2022-08-29T04:28:21.751Z,16.4
2022-08-29T04:29:21.848Z,16.4
2022-08-29T04:30:21.667Z,16.4
2022-08-29T04:31:24.831Z,16.4
2022-08-29T04:32:20.917Z,16.5
2022-08-29T04:33:26.790Z,16.5
2022-08-29T04:34:19.803Z,16.5
2022-08-29T04:35:20.038Z,16.5
2022-08-29T04:36:20.592Z,16.5
2022-08-29T04:37:20.544Z,16.5
2022-08-29T04:38:20.416Z,16.5
2022-08-29T04:39:23.152Z,16.5
2022-08-29T04:40:09.977Z,16.5
2022-08-29T04:41:26.116Z,16.5
2022-08-29T04:42:24.663Z,16.5
2022-08-29T04:43:19.926Z,16.6
2022-08-29T04:44:15.217Z,16.6
2022-08-29T04:45:24.266Z,16.6
2022-08-29T04:46:27.900Z,16.6
2022-08-29T04:47:18.136Z,16.6
2022-08-29T04:48:21.054Z,16.6
2022-08-29T04:49:23.759Z,16.6
2022-08-29T04:50:22.599Z,16.6
2022-08-29T04:51:18.116Z,16.6
2022-08-29T04:52:21.958Z,16.6
2022-08-29T04:53:16.714Z,16.6
2022-08-29T04:54:18.756Z,16.6
2022-08-29T04:55:29.604Z,16.6
2022-08-29T04:56:20.693Z,16.6
2022-08-29T04:57:22.040Z,16.6
2022-08-29T04:58:22.283Z,16.6
2022-08-29T04:59:22.639Z,16.6
2022-08-29T05:00:24.302Z,16.6
2022-08-29T05:01:23.189Z,16.5
2022-08-29T05:02:21.364Z,16.5
2022-08-29T05:03:20.070Z,16.5
2022-08-29T05:04:27.641Z,16.5
2022-08-29T05:05:22.405Z,16.5
2022-08-29T05:06:24.839Z,16.5
2022-08-29T05:07:21.570Z,16.4
2022-08-29T05:08:29.252Z,16.5
2022-08-29T05:09:21.356Z,16.6
2022-08-29T05:10:10.171Z,16.6
2022-08-29T05:11:27.819Z,16.6
2022-08-29T05:12:18.079Z,16.5
2022-08-29T05:13:22.584Z,16.4
2022-08-29T05:14:16.640Z,16.4
2022-08-29T05:15:23.108Z,16.4
2022-08-29T05:16:19.141Z,16.4
2022-08-29T05:17:21.802Z,16.6
2022-08-29T05:18:18.954Z,16.6
2022-08-29T05:19:21.078Z,16.6
2022-08-29T05:20:24.276Z,16.6
2022-08-29T05:21:27.886Z,16.6
2022-08-29T05:22:18.438Z,16.6
2022-08-29T05:23:22.483Z,16.6
2022-08-29T05:24:21.003Z,16.6
2022-08-29T05:25:22.460Z,16.6
2022-08-29T05:26:19.603Z,16.6
2022-08-29T05:27:19.670Z,16.7
2022-08-29T05:28:20.043Z,16.7
2022-08-29T05:29:16.774Z,16.7
2022-08-29T05:30:41.484Z,16.7
2022-08-29T05:31:18.370Z,16.7
2022-08-29T05:32:18.660Z,16.7
2022-08-29T05:33:18.327Z,16.8
2022-08-29T05:34:39.161Z,16.8
2022-08-29T05:35:19.230Z,16.8
2022-08-29T05:36:18.320Z,16.8
2022-08-29T05:37:16.782Z,16.8
2022-08-29T05:38:22.920Z,16.8
2022-08-29T05:39:27.396Z,16.8
2022-08-29T05:40:16.770Z,16.8
2022-08-29T05:41:20.818Z,16.8
2022-08-29T05:42:20.363Z,16.8
2022-08-29T05:43:21.420Z,16.8
2022-08-29T05:44:21.671Z,16.8
2022-08-29T05:45:24.423Z,16.8
2022-08-29T05:46:25.092Z,16.8
2022-08-29T05:47:21.598Z,16.8
2022-08-29T05:48:24.945Z,16.8
2022-08-29T05:49:17.038Z,16.8
2022-08-29T05:50:26.804Z,16.8
2022-08-29T05:51:19.110Z,16.8
2022-08-29T05:52:25.012Z,16.8
2022-08-29T05:53:22.747Z,16.8
2022-08-29T05:54:21.908Z,16.6
2022-08-29T05:55:25.907Z,16.6
2022-08-29T05:56:25.374Z,16.6
2022-08-29T05:57:23.632Z,16.6
2022-08-29T05:58:25.007Z,16.7
2022-08-29T05:59:21.964Z,16.7
2022-08-29T06:00:18.028Z,16.7
2022-08-29T06:01:18.734Z,16.7
2022-08-29T06:02:18.227Z,16.7
2022-08-29T06:03:16.200Z,16.6
2022-08-29T06:04:17.830Z,16.6
2022-08-29T06:05:23.516Z,16.6
2022-08-29T06:06:17.821Z,16.7
2022-08-29T06:07:17.946Z,16.7
2022-08-29T06:08:22.541Z,16.8
2022-08-29T06:09:28.716Z,16.8
2022-08-29T06:10:08.281Z,16.8
2022-08-29T06:11:25.035Z,16.8
2022-08-29T06:12:20.008Z,16.8
2022-08-29T06:13:27.348Z,16.9
2022-08-29T06:14:21.162Z,16.9
2022-08-29T06:15:18.604Z,16.9
2022-08-29T06:16:28.449Z,16.9
2022-08-29T06:17:21.991Z,16.9
2022-08-29T06:18:16.562Z,16.9
2022-08-29T06:19:22.633Z,16.9
2022-08-29T06:20:18.220Z,16.9
2022-08-29T06:21:20.204Z,17
2022-08-29T06:22:23.492Z,17
2022-08-29T06:23:30.291Z,16.9
2022-08-29T06:24:22.994Z,16.9
2022-08-29T06:25:42.594Z,17
2022-08-29T06:26:18.882Z,17
2022-08-29T06:27:24.340Z,16.9
2022-08-29T06:28:28.383Z,16.9
2022-08-29T06:29:16.482Z,16.9
2022-08-29T06:30:20.467Z,16.9
2022-08-29T06:31:19.999Z,17
2022-08-29T06:32:15.662Z,17
2022-08-29T06:33:20.421Z,17
2022-08-29T06:34:07.059Z,17.1
2022-08-29T06:35:28.245Z,17
2022-08-29T06:36:08.128Z,17
2022-08-29T06:37:20.851Z,16.9
2022-08-29T06:38:21.190Z,16.9
2022-08-29T06:39:26.768Z,17.1
2022-08-29T06:40:11.900Z,17.1
2022-08-29T06:41:13.404Z,17.1
2022-08-29T06:42:23.392Z,17.1
2022-08-29T06:43:18.780Z,17.1
2022-08-29T06:44:25.730Z,17
2022-08-29T06:45:19.469Z,17
2022-08-29T06:46:22.546Z,17.1
2022-08-29T06:47:19.913Z,17.1
2022-08-29T06:48:21.410Z,16.9
2022-08-29T06:49:24.089Z,16.9
2022-08-29T06:50:18.471Z,16.9
2022-08-29T06:51:24.279Z,17.1
2022-08-29T06:52:24.004Z,17.1
2022-08-29T06:53:37.212Z,17.1
2022-08-29T06:54:18.623Z,17.1
2022-08-29T06:55:12.807Z,17.2
2022-08-29T06:56:24.940Z,17.1
2022-08-29T06:57:20.973Z,17.1
2022-08-29T06:58:22.358Z,17.1
2022-08-29T06:59:19.761Z,17.1
2022-08-29T07:00:26.879Z,17.2
2022-08-29T07:01:25.906Z,17.2
2022-08-29T07:02:21.507Z,17.2
2022-08-29T07:03:24.252Z,17.2
2022-08-29T07:04:28.707Z,17.3
2022-08-29T07:05:19.875Z,17.3
2022-08-29T07:06:25.744Z,17.3
2022-08-29T07:07:23.043Z,17.3
2022-08-29T07:08:07.243Z,17.3
2022-08-29T07:09:28.967Z,17.3
2022-08-29T07:10:13.066Z,17.3
2022-08-29T07:11:19.112Z,17.3
2022-08-29T07:12:20.615Z,17.3
2022-08-29T07:13:21.918Z,17.4
2022-08-29T07:14:20.282Z,17.4
2022-08-29T07:15:18.914Z,17.4
2022-08-29T07:16:26.129Z,17.4
2022-08-29T07:17:30.196Z,17.4
2022-08-29T07:18:22.111Z,17.4
2022-08-29T07:19:22.785Z,17.4
2022-08-29T07:20:38.812Z,17.5
2022-08-29T07:21:11.026Z,17.5
2022-08-29T07:22:19.848Z,17.5
2022-08-29T07:23:24.506Z,17.5
2022-08-29T07:24:24.285Z,17.5
2022-08-29T07:25:21.802Z,17.5
2022-08-29T07:26:19.886Z,17.6
2022-08-29T07:27:22.316Z,17.6
2022-08-29T07:28:22.766Z,17.4
2022-08-29T07:29:19.628Z,17.4
2022-08-29T07:30:21.848Z,17.5
2022-08-29T07:31:17.969Z,17.5
2022-08-29T07:32:29.900Z,17.4
2022-08-29T07:33:19.350Z,17.4
2022-08-29T07:34:22.938Z,17.4
2022-08-29T07:35:33.416Z,17.5
2022-08-29T07:36:22.651Z,17.6
2022-08-29T07:37:25.446Z,17.6
2022-08-29T07:38:19.155Z,17.6
2022-08-29T07:39:10.675Z,17.6
2022-08-29T07:40:22.935Z,17.6
2022-08-29T07:41:23.913Z,17.7
2022-08-29T07:42:21.795Z,17.7
2022-08-29T07:43:29.891Z,17.7
2022-08-29T07:44:20.121Z,17.7
2022-08-29T07:45:22.669Z,17.8
2022-08-29T07:46:22.053Z,17.8
2022-08-29T07:47:21.069Z,17.7
2022-08-29T07:48:27.402Z,17.7
2022-08-29T07:49:23.667Z,17.7
2022-08-29T07:50:25.337Z,17.7
2022-08-29T07:51:25.564Z,17.8
2022-08-29T07:52:18.984Z,17.8
2022-08-29T07:53:24.565Z,17.8
2022-08-29T07:54:21.239Z,17.8
2022-08-29T07:55:23.081Z,17.8
2022-08-29T07:56:28.939Z,17.8
2022-08-29T07:57:20.798Z,17.8
2022-08-29T07:58:18.923Z,17.9
2022-08-29T07:59:18.094Z,17.9
2022-08-29T08:00:23.985Z,17.8
2022-08-29T08:01:25.440Z,17.8
2022-08-29T08:02:16.656Z,17.9
2022-08-29T08:03:21.125Z,17.9
2022-08-29T08:04:15.705Z,17.9
2022-08-29T08:05:17.065Z,17.9
2022-08-29T08:06:21.924Z,17.8
2022-08-29T08:07:18.445Z,17.8
2022-08-29T08:08:20.645Z,17.9
2022-08-29T08:09:31.027Z,17.9
2022-08-29T08:10:18.178Z,18
2022-08-29T08:11:20.897Z,18
2022-08-29T08:12:23.297Z,18
2022-08-29T08:13:20.944Z,18
2022-08-29T08:14:18.371Z,18
2022-08-29T08:15:22.352Z,17.9
2022-08-29T08:16:18.915Z,17.9
2022-08-29T08:17:20.256Z,17.9
2022-08-29T08:18:19.905Z,17.9
2022-08-29T08:19:17.820Z,17.8
2022-08-29T08:20:22.821Z,17.8
2022-08-29T08:21:19.850Z,17.9
2022-08-29T08:22:17.500Z,18
2022-08-29T08:23:34.805Z,18.1
2022-08-29T08:24:22.933Z,18.1
2022-08-29T08:25:30.055Z,18.1
2022-08-29T08:26:21.576Z,18.1
2022-08-29T08:27:18.340Z,18.2
2022-08-29T08:28:23.757Z,18.2
2022-08-29T08:29:22.551Z,18.2
2022-08-29T08:30:21.237Z,18.3
2022-08-29T08:31:22.808Z,18.3
2022-08-29T08:32:20.930Z,18.3
2022-08-29T08:33:22.877Z,18.3
2022-08-29T08:34:17.929Z,18.3
2022-08-29T08:35:27.150Z,18.3
2022-08-29T08:36:24.665Z,18.3
2022-08-29T08:37:29.960Z,18.3
2022-08-29T08:38:15.776Z,18.3
2022-08-29T08:39:29.721Z,18.3
2022-08-29T08:40:08.225Z,18.3
2022-08-29T08:41:31.259Z,18.3
2022-08-29T08:42:24.769Z,18.3
2022-08-29T08:43:30.365Z,18.3
2022-08-29T08:44:22.600Z,18.3
2022-08-29T08:45:26.039Z,18.3
2022-08-29T08:46:17.534Z,18.4
2022-08-29T08:47:16.118Z,18.4
2022-08-29T08:48:18.959Z,18.4
2022-08-29T08:49:25.978Z,18.4
2022-08-29T08:50:32.919Z,18.4
2022-08-29T08:51:17.896Z,18.4
2022-08-29T08:52:21.479Z,18.4
2022-08-29T08:53:21.238Z,18.5
2022-08-29T08:54:18.871Z,18.6
2022-08-29T08:55:24.280Z,18.6
2022-08-29T08:56:22.731Z,18.6
2022-08-29T08:57:28.393Z,18.7
2022-08-29T08:58:30.882Z,18.7
2022-08-29T08:59:19.508Z,18.6
2022-08-29T09:00:23.438Z,18.6
2022-08-29T09:01:17.781Z,18.6
2022-08-29T09:02:21.524Z,18.7
2022-08-29T09:03:24.178Z,18.7
2022-08-29T09:04:17.985Z,18.7
2022-08-29T09:05:21.508Z,18.6
2022-08-29T09:06:20.625Z,18.7
2022-08-29T09:07:20.058Z,18.6
2022-08-29T09:08:19.306Z,18.6
2022-08-29T09:09:31.324Z,18.6
2022-08-29T09:10:09.373Z,18.6
2022-08-29T09:11:21.456Z,18.6
2022-08-29T09:12:21.162Z,18.7
2022-08-29T09:13:23.469Z,18.7
2022-08-29T09:14:23.972Z,18.7
2022-08-29T09:15:37.182Z,18.7
2022-08-29T09:16:17.837Z,18.7
2022-08-29T09:17:38.208Z,18.7
2022-08-29T09:18:26.185Z,18.7
2022-08-29T09:19:21.600Z,18.7
2022-08-29T09:20:18.398Z,18.6
2022-08-29T09:21:44.894Z,18.8
2022-08-29T09:22:18.730Z,18.8
2022-08-29T09:23:20.884Z,18.6
2022-08-29T09:24:17.996Z,18.7
2022-08-29T09:25:31.620Z,18.8
2022-08-29T09:26:21.531Z,18.8
2022-08-29T09:27:25.522Z,18.8
2022-08-29T09:28:20.318Z,18.9
2022-08-29T09:29:23.290Z,18.9
2022-08-29T09:30:25.148Z,18.9
2022-08-29T09:31:26.228Z,18.9
2022-08-29T09:32:26.977Z,18.9
2022-08-29T09:33:21.210Z,18.9
2022-08-29T09:34:17.199Z,18.9
2022-08-29T09:35:23.310Z,18.9
2022-08-29T09:36:17.888Z,18.9
2022-08-29T09:37:19.603Z,18.9
2022-08-29T09:38:21.909Z,18.9
2022-08-29T09:39:28.206Z,19.1
2022-08-29T09:40:12.067Z,19.1
2022-08-29T09:41:16.639Z,19.1
2022-08-29T09:42:17.759Z,19.1
2022-08-29T09:43:33.549Z,19.1
2022-08-29T09:44:07.515Z,19.1
2022-08-29T09:45:22.017Z,19.2
2022-08-29T09:46:22.975Z,19.2
2022-08-29T09:47:25.233Z,19.1
2022-08-29T09:48:17.996Z,19.1
2022-08-29T09:49:22.028Z,19.2
2022-08-29T09:50:21.405Z,19.2
2022-08-29T09:51:18.876Z,19.3
2022-08-29T09:52:24.770Z,19.3
2022-08-29T09:53:30.230Z,19.4
2022-08-29T09:54:20.547Z,19.4
2022-08-29T09:55:27.309Z,19.3
2022-08-29T09:56:20.476Z,19.3
2022-08-29T09:57:11.665Z,19.2
2022-08-29T09:58:26.110Z,19.3
2022-08-29T09:59:19.312Z,19.3
2022-08-29T10:00:22.142Z,19.4
2022-08-29T10:01:18.347Z,19.4
2022-08-29T10:02:23.160Z,19.4
2022-08-29T10:03:28.156Z,19.4
2022-08-29T10:04:21.822Z,19.4
2022-08-29T10:05:30.269Z,19.4
2022-08-29T10:06:16.576Z,19.4
2022-08-29T10:07:26.464Z,19.5
2022-08-29T10:08:19.386Z,19.4
2022-08-29T10:09:33.364Z,19.5
2022-08-29T10:10:08.565Z,19.5
2022-08-29T10:11:16.509Z,19.8
2022-08-29T10:12:22.277Z,19.9
2022-08-29T10:13:21.290Z,19.9
2022-08-29T10:14:22.563Z,19.9
2022-08-29T10:15:53.438Z,20.1
2022-08-29T10:16:18.742Z,19.9
2022-08-29T10:17:32.903Z,19.9
2022-08-29T10:18:08.991Z,20
2022-08-29T10:19:24.198Z,19.9
2022-08-29T10:20:22.436Z,19.9
2022-08-29T10:21:24.130Z,19.9
2022-08-29T10:22:28.523Z,20.1
2022-08-29T10:23:16.351Z,20.1
2022-08-29T10:24:24.989Z,20.1
2022-08-29T10:25:21.329Z,20.2
2022-08-29T10:26:23.632Z,20.3
2022-08-29T10:27:17.095Z,20.3
2022-08-29T10:28:27.850Z,20.3
2022-08-29T10:29:21.537Z,20.1
2022-08-29T10:30:26.699Z,20.2
2022-08-29T10:31:17.956Z,20.3
2022-08-29T10:32:26.926Z,20.4
2022-08-29T10:33:20.003Z,20.4
2022-08-29T10:34:19.910Z,20.4
2022-08-29T10:35:23.726Z,20.4
2022-08-29T10:36:22.629Z,20.5
2022-08-29T10:37:30.662Z,20.5
2022-08-29T10:38:18.706Z,20.5
2022-08-29T10:39:28.804Z,20.3
2022-08-29T10:40:09.300Z,20.3
2022-08-29T10:41:17.975Z,20.4
2022-08-29T10:42:21.501Z,20.4
2022-08-29T10:43:17.586Z,20.2
2022-08-29T10:44:21.982Z,20.3
2022-08-29T10:45:21.538Z,20.3
2022-08-29T10:46:21.185Z,20.3
2022-08-29T10:47:22.776Z,20.4
2022-08-29T10:48:21.756Z,20.4
2022-08-29T10:49:13.068Z,20.4
2022-08-29T10:50:47.249Z,20.5
2022-08-29T10:51:25.795Z,20.6
2022-08-29T10:52:15.055Z,20.8
2022-08-29T10:53:23.282Z,20.8
2022-08-29T10:54:26.633Z,20.7
2022-08-29T10:55:23.558Z,20.6
2022-08-29T10:56:23.725Z,20.6
2022-08-29T10:57:16.848Z,20.6
2022-08-29T10:58:17.145Z,20.6
2022-08-29T10:59:22.961Z,20.6
2022-08-29T11:00:16.913Z,21.1
2022-08-29T11:01:22.370Z,21.1
2022-08-29T11:02:21.397Z,21.1
2022-08-29T11:03:20.956Z,21.5
2022-08-29T11:04:21.777Z,21.8
2022-08-29T11:05:18.086Z,21.9
2022-08-29T11:06:22.551Z,21.9
2022-08-29T11:07:17.747Z,21.9
2022-08-29T11:08:21.369Z,21.9
2022-08-29T11:09:23.690Z,22.1
2022-08-29T11:10:06.550Z,22.1
2022-08-29T11:11:25.476Z,22.4
2022-08-29T11:12:25.061Z,22.5
2022-08-29T11:13:21.091Z,22.4
2022-08-29T11:14:18.955Z,22.8
2022-08-29T11:15:18.145Z,23
2022-08-29T11:16:20.820Z,23
2022-08-29T11:17:23.766Z,23
2022-08-29T11:18:26.520Z,22.4
2022-08-29T11:19:26.327Z,22.4
2022-08-29T11:20:20.634Z,22
2022-08-29T11:21:18.296Z,22.3
2022-08-29T11:22:27.643Z,23
2022-08-29T11:23:16.346Z,23.1
2022-08-29T11:24:22.621Z,23
2022-08-29T11:25:18.756Z,23
2022-08-29T11:26:16.819Z,23.2
2022-08-29T11:27:22.112Z,23.1
2022-08-29T11:28:23.277Z,23.1
2022-08-29T11:29:26.209Z,23.4
2022-08-29T11:30:20.234Z,23.4
2022-08-29T11:31:16.430Z,23.4
2022-08-29T11:32:19.313Z,23.4
2022-08-29T11:33:20.604Z,23.4
2022-08-29T11:34:21.471Z,23.3
2022-08-29T11:35:15.009Z,23.1
2022-08-29T11:36:19.074Z,23.3
2022-08-29T11:37:23.719Z,23.4
2022-08-29T11:38:24.514Z,23.4
2022-08-29T11:39:24.197Z,23.4
2022-08-29T11:40:07.686Z,23.5
2022-08-29T11:41:36.446Z,23.8
2022-08-29T11:42:52.496Z,23.8
2022-08-29T11:43:19.941Z,23.1
2022-08-29T11:44:18.175Z,23.1
2022-08-29T11:45:27.196Z,23.7
2022-08-29T11:46:16.126Z,23.7
2022-08-29T11:47:23.255Z,23.5
2022-08-29T11:48:17.476Z,23.4
2022-08-29T11:49:24.111Z,23.6
2022-08-29T11:50:28.634Z,23.8
2022-08-29T11:51:27.471Z,23.8
2022-08-29T11:52:26.692Z,23.8
2022-08-29T11:53:21.183Z,23.8
2022-08-29T11:54:17.556Z,23.8
2022-08-29T11:55:22.540Z,24
2022-08-29T11:56:21.077Z,24
2022-08-29T11:57:23.513Z,23.4
2022-08-29T11:58:21.723Z,23.4
2022-08-29T11:59:19.302Z,23.3
2022-08-29T12:01:20.791Z,23.5
2022-08-29T12:02:19.893Z,23.5
2022-08-29T12:03:33.692Z,23.9
2022-08-29T12:04:18.636Z,24
2022-08-29T12:06:18.580Z,23.8
2022-08-29T12:07:22.584Z,23.9
2022-08-29T12:08:50.734Z,23.8
2022-08-29T12:09:24.243Z,23.8
2022-08-29T12:10:16.244Z,23.8
2022-08-29T12:11:26.531Z,24.3
2022-08-29T12:12:22.849Z,24.3
2022-08-29T12:13:18.803Z,24.3
2022-08-29T12:14:25.011Z,24.3
2022-08-29T12:15:17.430Z,24.3
2022-08-29T12:16:20.474Z,24.3
2022-08-29T12:17:19.993Z,23.8
2022-08-29T12:18:16.625Z,24
2022-08-29T12:19:18.264Z,24.2
2022-08-29T12:20:19.811Z,24.3
2022-08-29T12:21:23.758Z,24.3
2022-08-29T12:22:26.704Z,24
2022-08-29T12:23:22.013Z,24
2022-08-29T12:24:21.103Z,23.7
2022-08-29T12:25:22.344Z,23.5
2022-08-29T12:26:27.301Z,23.9
2022-08-29T12:27:24.632Z,23.9
2022-08-29T12:29:24.396Z,24.1
2022-08-29T12:30:21.256Z,24.2
2022-08-29T12:31:22.378Z,24.3
2022-08-29T12:32:33.200Z,24.3
2022-08-29T12:33:44.265Z,24.4
2022-08-29T12:34:07.788Z,24.4
2022-08-29T12:35:26.365Z,24.2
2022-08-29T12:36:21.596Z,24.2
2022-08-29T12:37:15.944Z,24.4
2022-08-29T12:38:27.751Z,24.4
2022-08-29T12:39:26.607Z,24.5
2022-08-29T12:40:07.307Z,24.6
2022-08-29T12:41:24.090Z,24.6
2022-08-29T12:42:14.244Z,24.6
2022-08-29T12:43:22.753Z,24.1
2022-08-29T12:44:23.173Z,24.1
2022-08-29T12:45:37.819Z,24
2022-08-29T12:46:09.713Z,24
2022-08-29T12:47:27.465Z,24.3
2022-08-29T12:48:20.070Z,24.3
2022-08-29T12:49:18.404Z,24.8
2022-08-29T12:50:23.467Z,24.8
2022-08-29T12:51:22.079Z,24.8
2022-08-29T12:52:19.627Z,24.6
2022-08-29T12:53:16.510Z,24.3
2022-08-29T12:54:20.188Z,24.3
2022-08-29T12:55:20.250Z,24.1
2022-08-29T12:56:07.131Z,24.1
2022-08-29T12:57:23.332Z,24.5
2022-08-29T12:58:19.481Z,24.6
2022-08-29T12:59:21.496Z,24.6
2022-08-29T13:00:22.848Z,24.8
2022-08-29T13:01:21.738Z,24.9
2022-08-29T13:02:25.792Z,24.9
2022-08-29T13:03:28.414Z,24.6
2022-08-29T13:04:09.158Z,24.6
2022-08-29T13:05:19.382Z,24.9
2022-08-29T13:06:20.403Z,25.1
2022-08-29T13:07:24.797Z,25.3
2022-08-29T13:08:24.495Z,25.3
2022-08-29T13:09:35.139Z,25.3
2022-08-29T13:10:08.202Z,25.3
2022-08-29T13:11:23.332Z,25.3
2022-08-29T13:12:07.571Z,25.3
2022-08-29T13:13:21.169Z,25.2
2022-08-29T13:14:22.057Z,25.2
2022-08-29T13:15:17.207Z,25.3
2022-08-29T13:16:19.571Z,25.3
2022-08-29T13:17:20.818Z,25.3
2022-08-29T13:18:14.996Z,25.3
2022-08-29T13:19:23.535Z,25.3
2022-08-29T13:20:18.821Z,25.4
2022-08-29T13:21:20.415Z,25.4
2022-08-29T13:22:26.882Z,25.4
2022-08-29T13:23:34.045Z,25.6
2022-08-29T13:24:07.505Z,25.6
2022-08-29T13:25:24.631Z,25.5